createdAt,value
2023-03-17T00:01:38.535Z,101316.44
2023-03-17T00:04:41.815Z,101312.38
2023-03-17T00:07:47.489Z,101307.88
2023-03-17T00:10:50.629Z,101299.53
2023-03-17T00:13:53.824Z,101306.38
2023-03-17T00:16:56.949Z,101294.28
2023-03-17T00:19:59.947Z,101298.69
2023-03-17T00:23:04.814Z,101296.19
2023-03-17T00:26:08.648Z,101296.19
2023-03-17T00:29:12.126Z,101288.50
2023-03-17T00:32:18.783Z,101294.59
2023-03-17T00:35:25.037Z,101284.41
2023-03-17T00:38:29.729Z,101287.31
2023-03-17T00:41:34.484Z,101275.34
2023-03-17T00:44:38.054Z,101273.63
2023-03-17T00:47:41.425Z,101265.16
2023-03-17T00:50:45.904Z,101264.31
2023-03-17T00:53:50.419Z,101251.69
2023-03-17T00:56:53.733Z,101242.44
2023-03-17T00:59:56.927Z,101237.19
2023-03-17T01:02:59.922Z,101229.53
2023-03-17T01:06:06.091Z,101229.53
2023-03-17T01:09:14.819Z,101229.66
2023-03-17T01:12:18.272Z,101232.31
2023-03-17T01:15:23.135Z,101238.47
2023-03-17T01:18:27.598Z,101233.41
2023-03-17T01:21:31.161Z,101221.47
2023-03-17T01:24:35.513Z,101221.47
2023-03-17T01:27:40.280Z,101220.66
2023-03-17T01:30:43.654Z,101215.44
2023-03-17T01:33:47.503Z,101218.09
2023-03-17T01:36:51.658Z,101198.38
2023-03-17T01:39:56.573Z,101208.81
2023-03-17T01:43:05.639Z,101192.69
2023-03-17T01:46:29.251Z,101192.66
2023-03-17T01:49:36.727Z,101189.47
2023-03-17T01:52:41.506Z,101193.66
2023-03-17T01:55:47.079Z,101194.50
2023-03-17T01:58:53.897Z,101186.84
2023-03-17T02:02:05.268Z,101169.69
2023-03-17T02:05:11.541Z,101164.53
2023-03-17T02:08:17.789Z,101172.22
2023-03-17T02:11:22.493Z,101167.00
2023-03-17T02:14:25.620Z,101172.22
2023-03-17T02:17:29.788Z,101161.13
2023-03-17T02:21:25.212Z,101162.16
2023-03-17T02:24:34.581Z,101148.41
2023-03-17T02:27:41.962Z,101147.50
2023-03-17T02:30:45.744Z,101151.84
2023-03-17T02:33:52.131Z,101166.44
2023-03-17T02:36:55.332Z,101149.41
2023-03-17T02:40:01.111Z,101151.19
2023-03-17T02:43:05.610Z,101148.66
2023-03-17T02:46:09.862Z,101146.97
2023-03-17T02:49:13.799Z,101140.03
2023-03-17T02:52:17.232Z,101136.50
2023-03-17T02:55:22.217Z,101142.56
2023-03-17T02:58:25.814Z,101136.63
2023-03-17T03:01:29.373Z,101139.19
2023-03-17T03:04:32.630Z,101143.41
2023-03-17T03:07:38.632Z,101139.84
2023-03-17T03:10:43.524Z,101135.63
2023-03-17T03:13:46.970Z,101132.13
2023-03-17T03:16:50.262Z,101124.38
2023-03-17T03:19:53.729Z,101133.81
2023-03-17T03:22:56.898Z,101153.50
2023-03-17T03:26:01.304Z,101148.34
2023-03-17T03:29:05.326Z,101148.28
2023-03-17T03:32:10.396Z,101150.06
2023-03-17T03:35:13.434Z,101162.84
2023-03-17T03:38:16.482Z,101161.06
2023-03-17T03:41:21.315Z,101147.28
2023-03-17T03:44:24.760Z,101149.06
2023-03-17T03:47:27.701Z,101140.59
2023-03-17T03:50:31.334Z,101132.81
2023-03-17T03:53:34.703Z,101143.25
2023-03-17T03:56:39.003Z,101140.78
2023-03-17T03:59:42.381Z,101139.88
2023-03-17T04:02:46.759Z,101144.91
2023-03-17T04:05:49.986Z,101145.91
2023-03-17T04:08:53.062Z,101140.03
2023-03-17T04:11:57.379Z,101136.59
2023-03-17T04:15:00.780Z,101135.75
2023-03-17T04:18:05.510Z,101137.63
2023-03-17T04:21:09.182Z,101131.69
2023-03-17T04:24:12.513Z,101126.50
2023-03-17T04:27:17.465Z,101126.59
2023-03-17T04:30:20.664Z,101123.19
2023-03-17T04:33:23.626Z,101112.81
2023-03-17T04:36:27.039Z,101100.84
2023-03-17T04:39:30.402Z,101101.66
2023-03-17T04:42:34.660Z,101108.94
2023-03-17T04:45:37.993Z,101111.53
2023-03-17T04:48:41.428Z,101119.19
2023-03-17T04:51:44.359Z,101119.19
2023-03-17T04:54:47.759Z,101108.16
2023-03-17T04:57:52.279Z,101114.19
2023-03-17T05:00:55.718Z,101103.13
2023-03-17T05:03:58.833Z,101106.47
2023-03-17T05:07:02.834Z,101104.91
2023-03-17T05:10:07.440Z,101106.53
2023-03-17T05:13:11.758Z,101109.09
2023-03-17T05:16:14.896Z,101096.34
2023-03-17T05:19:19.165Z,101092.97
2023-03-17T05:22:22.109Z,101075.69
2023-03-17T05:25:25.321Z,101079.84
2023-03-17T05:28:29.662Z,101086.53
2023-03-17T05:31:33.074Z,101084.84
2023-03-17T05:34:36.063Z,101100.31
2023-03-17T05:37:39.010Z,101092.59
2023-03-17T05:40:42.692Z,101093.59
2023-03-17T05:43:47.255Z,101092.59
2023-03-17T05:46:50.221Z,101094.22
2023-03-17T05:49:54.027Z,101100.09
2023-03-17T05:52:57.053Z,101096.56
2023-03-17T05:56:00.167Z,101098.19
2023-03-17T05:59:14.945Z,101105.06
2023-03-17T06:02:18.319Z,101114.47
2023-03-17T06:05:23.865Z,101106.72
2023-03-17T06:08:26.892Z,101105.81
2023-03-17T06:11:30.331Z,101104.91
2023-03-17T06:14:34.860Z,101100.59
2023-03-17T06:17:38.456Z,101083.47
2023-03-17T06:20:41.566Z,101087.78
2023-03-17T06:23:44.569Z,101086.88
2023-03-17T06:26:47.561Z,101098.78
2023-03-17T06:29:51.812Z,101100.44
2023-03-17T06:32:55.282Z,101106.38
2023-03-17T06:36:00.506Z,101096.84
2023-03-17T06:39:09.537Z,101099.44
2023-03-17T06:42:12.941Z,101089.81
2023-03-17T06:45:17.460Z,101090.50
2023-03-17T06:48:20.795Z,101082.66
2023-03-17T06:51:26.038Z,101085.31
2023-03-17T06:54:33.498Z,101082.59
2023-03-17T06:57:43.572Z,101084.94
2023-03-17T07:00:48.850Z,101066.63
2023-03-17T07:03:51.983Z,101068.16
2023-03-17T07:06:55.211Z,101071.41
2023-03-17T07:10:01.155Z,101072.06
2023-03-17T07:13:05.991Z,101068.41
2023-03-17T07:16:13.935Z,101069.06
2023-03-17T07:19:22.394Z,101065.56
2023-03-17T07:22:26.184Z,101051.59
2023-03-17T07:25:44.058Z,101043.69
2023-03-17T07:29:01.377Z,101033.09
2023-03-17T07:32:08.115Z,101040.53
2023-03-17T07:35:11.165Z,101024.53
2023-03-17T07:38:14.226Z,101010.00
2023-03-17T07:41:17.712Z,101018.13
2023-03-17T07:44:20.926Z,101017.47
2023-03-17T07:47:25.316Z,100989.13
2023-03-17T07:50:28.457Z,101005.28
2023-03-17T07:53:31.558Z,101017.28
2023-03-17T07:56:34.615Z,101020.03
2023-03-17T07:59:38.255Z,101037.03
2023-03-17T08:03:03.176Z,101028.63
2023-03-17T08:06:11.514Z,101026.28
2023-03-17T08:09:14.700Z,101010.06
2023-03-17T08:12:17.768Z,101012.59
2023-03-17T08:15:22.032Z,101020.16
2023-03-17T08:18:29.414Z,101010.31
2023-03-17T08:21:32.464Z,101003.56
2023-03-17T08:24:35.522Z,100996.81
2023-03-17T08:27:39.125Z,101005.41
2023-03-17T08:30:42.480Z,100996.03
2023-03-17T08:33:50.294Z,100991.22
2023-03-17T08:36:53.467Z,100985.25
2023-03-17T08:39:56.421Z,100994.78
2023-03-17T08:42:59.351Z,101009.00
2023-03-17T08:46:07.084Z,101002.28
2023-03-17T08:49:12.601Z,100995.19
2023-03-17T08:52:16.180Z,100986.66
2023-03-17T08:55:20.286Z,100965.00
2023-03-17T08:58:26.111Z,100966.94
2023-03-17T09:01:29.247Z,100961.47
2023-03-17T09:04:33.905Z,100953.94
2023-03-17T09:07:37.566Z,100945.50
2023-03-17T09:10:42.500Z,100953.34
2023-03-17T09:13:49.195Z,100953.00
2023-03-17T09:16:54.953Z,100941.66
2023-03-17T09:19:59.450Z,100940.03
2023-03-17T09:23:07.842Z,100943.88
2023-03-17T09:26:11.095Z,100943.09
2023-03-17T09:29:15.635Z,100944.59
2023-03-17T09:32:18.789Z,100942.44
2023-03-17T09:35:23.268Z,100933.81
2023-03-17T09:38:28.993Z,100926.50
2023-03-17T09:42:02.439Z,100931.72
2023-03-17T09:45:20.237Z,100934.88
2023-03-17T09:48:46.880Z,100936.38
2023-03-17T09:51:54.741Z,100931.00
2023-03-17T09:54:58.660Z,100938.16
2023-03-17T09:58:03.456Z,100926.53
2023-03-17T10:01:08.002Z,100924.25
2023-03-17T10:04:12.519Z,100926.38
2023-03-17T10:07:26.017Z,100912.31
2023-03-17T10:10:37.429Z,100902.91
2023-03-17T10:13:54.824Z,100899.50
2023-03-17T10:17:04.512Z,100912.81
2023-03-17T10:20:17.235Z,100905.19
2023-03-17T10:23:27.161Z,100908.78
2023-03-17T10:26:34.964Z,100914.13
2023-03-17T10:29:38.314Z,100904.63
2023-03-17T10:32:42.110Z,100920.56
2023-03-17T10:35:45.531Z,100916.19
2023-03-17T10:38:54.804Z,100906.22
2023-03-17T10:42:00.358Z,100903.75
2023-03-17T10:45:13.183Z,100905.63
2023-03-17T10:48:20.621Z,100901.78
2023-03-17T10:51:35.399Z,100901.91
2023-03-17T10:54:42.878Z,100894.38
2023-03-17T10:57:54.588Z,100883.78
2023-03-17T11:01:00.886Z,100881.94
2023-03-17T11:04:20.646Z,100884.59
2023-03-17T11:07:34.512Z,100876.31
2023-03-17T11:10:41.623Z,100872.81
2023-03-17T11:13:44.966Z,100864.38
2023-03-17T11:16:55.178Z,100863.09
2023-03-17T11:20:12.868Z,100856.84
2023-03-17T11:23:42.469Z,100855.31
2023-03-17T11:26:57.561Z,100857.31
2023-03-17T11:30:30.345Z,100849.84
2023-03-17T11:33:37.429Z,100858.41
2023-03-17T11:36:50.537Z,100850.19
2023-03-17T11:43:34.880Z,100853.88
2023-03-17T11:46:44.119Z,100850.28
2023-03-17T11:49:54.127Z,100855.56
2023-03-17T11:53:18.472Z,100850.69
2023-03-17T11:56:26.154Z,100850.88
2023-03-17T11:59:38.403Z,100843.06
2023-03-17T12:02:47.509Z,100841.47
2023-03-17T12:05:55.607Z,100832.88
2023-03-17T12:09:01.937Z,100830.06
2023-03-17T12:12:06.916Z,100829.03
2023-03-17T12:15:22.305Z,100833.44
2023-03-17T12:18:31.204Z,100826.72
2023-03-17T12:21:42.142Z,100823.25
2023-03-17T12:24:51.748Z,100820.94
2023-03-17T12:28:02.370Z,100822.31
2023-03-17T12:31:09.082Z,100816.25
2023-03-17T12:34:21.738Z,100811.75
2023-03-17T12:37:27.643Z,100818.66
2023-03-17T12:40:37.077Z,100813.13
2023-03-17T12:43:52.209Z,100808.34
2023-03-17T12:47:21.765Z,100800.31
2023-03-17T12:51:07.601Z,100792.53
2023-03-17T12:54:16.245Z,100781.56
2023-03-17T12:57:22.137Z,100773.28
2023-03-17T13:00:29.532Z,100780.38
2023-03-17T13:03:38.407Z,100765.56
2023-03-17T13:06:45.657Z,100772.47
2023-03-17T13:09:53.041Z,100772.81
2023-03-17T13:13:12.030Z,100777.38
2023-03-17T13:16:33.793Z,100774.06
2023-03-17T13:19:56.787Z,100775.09
2023-03-17T13:23:11.267Z,100773.13
2023-03-17T13:26:16.636Z,100765.63
2023-03-17T13:29:40.917Z,100767.41
2023-03-17T13:32:44.248Z,100759.75
2023-03-17T13:36:07.363Z,100766.09
2023-03-17T13:39:48.663Z,100749.09
2023-03-17T13:43:12.991Z,100736.50
2023-03-17T13:46:24.335Z,100743.34
2023-03-17T13:49:32.109Z,100753.16
2023-03-17T13:52:43.266Z,100755.28
2023-03-17T13:56:11.959Z,100754.81
2023-03-17T13:59:18.680Z,100757.91
2023-03-17T14:02:40.144Z,100764.50
2023-03-17T14:05:47.985Z,100761.59
2023-03-17T14:08:58.385Z,100754.13
2023-03-17T14:12:07.692Z,100764.59
2023-03-17T14:15:21.335Z,100756.94
2023-03-17T14:18:33.324Z,100757.19
2023-03-17T14:21:36.517Z,100752.47
2023-03-17T14:24:41.124Z,100743.88
2023-03-17T14:27:46.446Z,100745.53
2023-03-17T14:30:55.468Z,100741.03
2023-03-17T14:34:00.896Z,100730.53
2023-03-17T14:37:05.724Z,100721.13
2023-03-17T14:40:23.221Z,100720.06
2023-03-17T14:43:26.350Z,100722.06
2023-03-17T14:46:34.625Z,100710.47
2023-03-17T14:49:37.615Z,100701.00
2023-03-17T14:52:41.242Z,100696.50
2023-03-17T14:55:46.542Z,100690.28
2023-03-17T14:58:53.401Z,100694.53
2023-03-17T15:01:58.956Z,100690.66
2023-03-17T15:05:21.217Z,100699.91
2023-03-17T15:08:45.957Z,100692.16
2023-03-17T15:11:50.558Z,100691.47
2023-03-17T15:14:57.461Z,100697.09
2023-03-17T15:18:04.982Z,100685.78
2023-03-17T15:21:29.796Z,100682.78
2023-03-17T15:24:39.869Z,100672.84
2023-03-17T15:27:45.079Z,100666.19
2023-03-17T15:30:50.730Z,100665.06
2023-03-17T15:33:54.003Z,100664.09
2023-03-17T15:36:59.421Z,100656.19
2023-03-17T15:40:05.437Z,100651.78
2023-03-17T15:43:14.847Z,100644.91
2023-03-17T15:46:24.799Z,100641.31
2023-03-17T15:49:27.877Z,100640.19
2023-03-17T15:52:30.886Z,100645.66
2023-03-17T15:55:34.070Z,100648.41
2023-03-17T15:58:38.622Z,100645.63
2023-03-17T16:01:41.931Z,100657.69
2023-03-17T16:04:44.914Z,100664.19
2023-03-17T16:07:47.986Z,100657.00
2023-03-17T16:10:53.052Z,100659.28
2023-03-17T16:13:59.089Z,100659.53
2023-03-17T16:17:02.286Z,100661.69
2023-03-17T16:20:06.267Z,100666.47
2023-03-17T16:23:16.422Z,100672.53
2023-03-17T16:26:19.374Z,100667.13
2023-03-17T16:29:23.671Z,100662.13
2023-03-17T16:32:26.782Z,100653.47
2023-03-17T16:35:30.715Z,100653.94
2023-03-17T16:38:35.479Z,100651.09
2023-03-17T16:41:38.495Z,100643.59
2023-03-17T16:44:42.811Z,100648.75
2023-03-17T16:47:46.060Z,100657.56
2023-03-17T16:50:49.411Z,100651.41
2023-03-17T16:53:52.498Z,100646.69
2023-03-17T16:56:55.818Z,100648.09
2023-03-17T17:00:00.251Z,100652.13
2023-03-17T17:03:03.314Z,100656.94
2023-03-17T17:06:12.245Z,100644.81
2023-03-17T17:09:17.469Z,100645.53
2023-03-17T17:12:20.414Z,100649.72
2023-03-17T17:15:25.669Z,100654.13
2023-03-17T17:18:31.273Z,100643.06
2023-03-17T17:21:34.300Z,100654.50
2023-03-17T17:24:37.259Z,100646.78
2023-03-17T17:27:42.487Z,100643.81
2023-03-17T17:30:48.025Z,100647.63
2023-03-17T17:33:50.981Z,100654.84
2023-03-17T17:36:54.097Z,100661.03
2023-03-17T17:39:57.153Z,100654.50
2023-03-17T17:43:00.510Z,100652.00
2023-03-17T17:46:05.157Z,100658.19
2023-03-17T17:49:08.918Z,100656.03
2023-03-17T17:52:11.955Z,100650.81
2023-03-17T17:55:14.989Z,100655.81
2023-03-17T17:58:20.394Z,100658.03
2023-03-17T18:01:24.958Z,100660.66
2023-03-17T18:04:28.042Z,100655.31
2023-03-17T18:07:31.188Z,100653.41
2023-03-17T18:10:35.074Z,100662.78
2023-03-17T18:13:38.997Z,100654.59
2023-03-17T18:16:43.375Z,100656.03
2023-03-17T18:19:46.321Z,100655.38
2023-03-17T18:22:50.240Z,100659.06
2023-03-17T18:26:00.753Z,100651.13
2023-03-17T18:29:03.858Z,100656.69
2023-03-17T18:32:09.183Z,100654.78
2023-03-17T18:35:17.277Z,100653.81
2023-03-17T18:38:20.302Z,100648.34
2023-03-17T18:41:24.287Z,100651.69
2023-03-17T18:44:27.313Z,100647.84
2023-03-17T18:47:31.553Z,100643.59
2023-03-17T18:50:34.851Z,100644.31
2023-03-17T18:53:39.178Z,100640.59
2023-03-17T18:56:42.174Z,100638.56
2023-03-17T18:59:45.281Z,100634.38
2023-03-17T19:02:49.839Z,100629.41
2023-03-17T19:05:53.205Z,100627.63
2023-03-17T19:08:57.268Z,100626.91
2023-03-17T19:12:00.230Z,100624.53
2023-03-17T19:15:04.192Z,100621.19
2023-03-17T19:18:09.685Z,100618.22
2023-03-17T19:21:14.479Z,100609.06
2023-03-17T19:24:17.577Z,100607.41
2023-03-17T19:27:20.767Z,100610.97
2023-03-17T19:30:23.781Z,100607.88
2023-03-17T19:33:29.124Z,100606.44
2023-03-17T19:36:37.601Z,100605.38
2023-03-17T19:39:44.144Z,100603.69
2023-03-17T19:42:47.201Z,100610.09
2023-03-17T19:45:50.243Z,100608.53
2023-03-17T19:48:56.488Z,100615.41
2023-03-17T19:51:59.579Z,100622.94
2023-03-17T19:55:04.588Z,100634.09
2023-03-17T19:58:11.701Z,100632.66
2023-03-17T20:01:15.279Z,100625.75
2023-03-17T20:04:21.795Z,100635.25
2023-03-17T20:07:24.872Z,100636.19
2023-03-17T20:10:27.897Z,100629.44
2023-03-17T20:13:30.852Z,100636.63
2023-03-17T20:16:36.162Z,100632.03
2023-03-17T20:19:40.529Z,100639.22
2023-03-17T20:22:43.902Z,100642.56
2023-03-17T20:25:46.939Z,100649.88
2023-03-17T20:28:50.739Z,100639.22
2023-03-17T20:31:54.016Z,100640.06
2023-03-17T20:34:58.554Z,100643.84
2023-03-17T20:38:02.144Z,100643.94
2023-03-17T20:41:08.012Z,100645.81
2023-03-17T20:44:10.940Z,100628.25
2023-03-17T20:47:14.388Z,100632.03
2023-03-17T20:50:19.085Z,100618.88
2023-03-17T20:53:23.266Z,100634.28
2023-03-17T20:56:28.424Z,100625.88
2023-03-17T20:59:31.515Z,100628.47
2023-03-17T21:02:34.757Z,100624.94
2023-03-17T21:05:39.450Z,100627.22
2023-03-17T21:08:42.475Z,100625.81
2023-03-17T21:11:45.656Z,100631.09
2023-03-17T21:14:50.637Z,100636.41
2023-03-17T21:17:53.710Z,100636.66
2023-03-17T21:20:58.235Z,100639.44
2023-03-17T21:24:02.177Z,100634.44
2023-03-17T21:27:09.551Z,100624.16
2023-03-17T21:30:15.720Z,100626.00
2023-03-17T21:33:19.324Z,100622.66
2023-03-17T21:36:26.678Z,100621.22
2023-03-17T21:39:30.427Z,100619.78
2023-03-17T21:42:33.516Z,100624.59
2023-03-17T21:45:37.136Z,100624.06
2023-03-17T21:48:40.139Z,100619.81
2023-03-17T21:51:46.318Z,100622.81
2023-03-17T21:54:50.334Z,100620.22
2023-03-17T21:57:53.740Z,100614.81
2023-03-17T22:00:57.023Z,100621.28
2023-03-17T22:04:00.498Z,100609.22
2023-03-17T22:07:05.276Z,100615.31
2023-03-17T22:10:09.977Z,100607.53
2023-03-17T22:13:12.948Z,100600.88
2023-03-17T22:16:20.230Z,100602.53
2023-03-17T22:19:23.411Z,100605.44
2023-03-17T22:22:29.129Z,100611.19
2023-03-17T22:25:32.082Z,100600.03
2023-03-17T22:28:35.349Z,100601.91
2023-03-17T22:31:38.324Z,100607.31
2023-03-17T22:34:41.357Z,100604.94
2023-03-17T22:37:45.934Z,100599.09
2023-03-17T22:40:48.914Z,100601.59
2023-03-17T22:43:52.638Z,100604.06
2023-03-17T22:46:56.207Z,100600.03
2023-03-17T22:49:59.185Z,100595.13
2023-03-17T22:53:03.473Z,100599.59
2023-03-17T22:56:07.840Z,100601.13
2023-03-17T22:59:11.387Z,100599.47
2023-03-17T23:02:15.792Z,100599.75
2023-03-17T23:10:41.725Z,100596.59
2023-03-17T23:13:45.415Z,100591.53
2023-03-17T23:16:48.695Z,100589.63
2023-03-17T23:19:51.738Z,100590.97
2023-03-17T23:22:54.787Z,100589.31
2023-03-17T23:25:59.458Z,100589.50
2023-03-17T23:29:02.455Z,100580.41
2023-03-17T23:32:06.641Z,100578.66
2023-03-17T23:35:10.956Z,100579.75
2023-03-17T23:38:14.029Z,100572.50
2023-03-17T23:41:18.407Z,100572.50
2023-03-17T23:44:21.579Z,100573.44
2023-03-17T23:47:24.706Z,100568.34
2023-03-17T23:50:27.863Z,100574.06
2023-03-17T23:53:31.369Z,100570.63
2023-03-17T23:56:35.827Z,100572.50
2023-03-17T23:59:38.764Z,100573.44
